sensor_id;sensor_type;location;lat;lon;timestamp;P1;durP1;ratioP1;P2;durP2;ratioP2
77226;SDS011;66234;47.642;19.144;2023-01-20T00:02:55;6.85;;;5.03;;
77226;SDS011;66234;47.642;19.144;2023-01-20T00:05:58;8.90;;;5.25;;
77226;SDS011;66234;47.642;19.144;2023-01-20T00:09:01;9.27;;;5.83;;
77226;SDS011;66234;47.642;19.144;2023-01-20T00:12:05;8.57;;;4.93;;
77226;SDS011;66234;47.642;19.144;2023-01-20T00:15:08;7.75;;;4.65;;
77226;SDS011;66234;47.642;19.144;2023-01-20T00:18:11;7.00;;;4.80;;
77226;SDS011;66234;47.642;19.144;2023-01-20T00:21:14;8.60;;;4.55;;
77226;SDS011;66234;47.642;19.144;2023-01-20T00:24:19;7.43;;;4.37;;
77226;SDS011;66234;47.642;19.144;2023-01-20T00:27:23;7.00;;;4.60;;
77226;SDS011;66234;47.642;19.144;2023-01-20T00:30:26;6.95;;;4.75;;
77226;SDS011;66234;47.642;19.144;2023-01-20T00:33:29;7.00;;;4.43;;
77226;SDS011;66234;47.642;19.144;2023-01-20T00:36:31;7.15;;;4.55;;
77226;SDS011;66234;47.642;19.144;2023-01-20T00:39:35;7.77;;;4.63;;
77226;SDS011;66234;47.642;19.144;2023-01-20T00:42:37;9.90;;;5.03;;
77226;SDS011;66234;47.642;19.144;2023-01-20T00:45:40;8.93;;;5.50;;
77226;SDS011;66234;47.642;19.144;2023-01-20T00:48:42;9.13;;;5.40;;
77226;SDS011;66234;47.642;19.144;2023-01-20T00:51:45;8.85;;;5.85;;
77226;SDS011;66234;47.642;19.144;2023-01-20T00:54:48;11.07;;;5.43;;
77226;SDS011;66234;47.642;19.144;2023-01-20T00:57:50;9.82;;;5.47;;
77226;SDS011;66234;47.642;19.144;2023-01-20T01:00:53;10.88;;;5.95;;
77226;SDS011;66234;47.642;19.144;2023-01-20T01:03:58;10.50;;;6.20;;
77226;SDS011;66234;47.642;19.144;2023-01-20T01:07:00;9.73;;;6.22;;
77226;SDS011;66234;47.642;19.144;2023-01-20T01:10:03;9.73;;;5.70;;
77226;SDS011;66234;47.642;19.144;2023-01-20T01:13:06;13.48;;;6.97;;
77226;SDS011;66234;47.642;19.144;2023-01-20T01:16:10;14.50;;;7.03;;
77226;SDS011;66234;47.642;19.144;2023-01-20T01:19:16;11.63;;;7.22;;
77226;SDS011;66234;47.642;19.144;2023-01-20T01:22:20;10.95;;;6.18;;
77226;SDS011;66234;47.642;19.144;2023-01-20T01:25:23;9.80;;;6.40;;
77226;SDS011;66234;47.642;19.144;2023-01-20T01:28:25;15.07;;;7.30;;
77226;SDS011;66234;47.642;19.144;2023-01-20T01:31:28;11.13;;;6.95;;
77226;SDS011;66234;47.642;19.144;2023-01-20T01:34:30;10.68;;;6.88;;
77226;SDS011;66234;47.642;19.144;2023-01-20T01:37:33;11.48;;;6.82;;
77226;SDS011;66234;47.642;19.144;2023-01-20T01:40:36;11.80;;;6.73;;
77226;SDS011;66234;47.642;19.144;2023-01-20T01:43:38;11.13;;;6.95;;
77226;SDS011;66234;47.642;19.144;2023-01-20T01:47:00;13.70;;;7.47;;
77226;SDS011;66234;47.642;19.144;2023-01-20T01:50:04;11.88;;;6.60;;
77226;SDS011;66234;47.642;19.144;2023-01-20T01:53:07;14.55;;;7.30;;
77226;SDS011;66234;47.642;19.144;2023-01-20T01:56:11;14.13;;;6.50;;
77226;SDS011;66234;47.642;19.144;2023-01-20T01:59:14;11.98;;;6.68;;
77226;SDS011;66234;47.642;19.144;2023-01-20T02:02:18;12.75;;;7.05;;
77226;SDS011;66234;47.642;19.144;2023-01-20T02:05:25;9.82;;;5.55;;
77226;SDS011;66234;47.642;19.144;2023-01-20T02:08:29;11.07;;;5.70;;
77226;SDS011;66234;47.642;19.144;2023-01-20T02:11:38;11.40;;;5.97;;
77226;SDS011;66234;47.642;19.144;2023-01-20T02:14:48;11.10;;;5.65;;
77226;SDS011;66234;47.642;19.144;2023-01-20T02:18:15;11.05;;;5.88;;
77226;SDS011;66234;47.642;19.144;2023-01-20T02:41:25;12.93;;;6.95;;
77226;SDS011;66234;47.642;19.144;2023-01-20T02:51:28;11.32;;;6.07;;
77226;SDS011;66234;47.642;19.144;2023-01-20T02:54:39;9.90;;;5.53;;
77226;SDS011;66234;47.642;19.144;2023-01-20T02:57:46;9.35;;;5.93;;
77226;SDS011;66234;47.642;19.144;2023-01-20T03:00:57;9.23;;;5.50;;
77226;SDS011;66234;47.642;19.144;2023-01-20T03:04:23;8.55;;;5.07;;
77226;SDS011;66234;47.642;19.144;2023-01-20T03:07:31;11.10;;;6.13;;
77226;SDS011;66234;47.642;19.144;2023-01-20T03:10:37;11.57;;;5.80;;
77226;SDS011;66234;47.642;19.144;2023-01-20T03:16:59;9.87;;;5.50;;
77226;SDS011;66234;47.642;19.144;2023-01-20T03:20:03;9.18;;;5.22;;
77226;SDS011;66234;47.642;19.144;2023-01-20T03:23:06;10.88;;;5.65;;
77226;SDS011;66234;47.642;19.144;2023-01-20T03:26:10;8.70;;;4.95;;
77226;SDS011;66234;47.642;19.144;2023-01-20T03:29:14;9.68;;;5.15;;
77226;SDS011;66234;47.642;19.144;2023-01-20T03:32:17;10.73;;;5.43;;
77226;SDS011;66234;47.642;19.144;2023-01-20T03:35:21;10.00;;;5.15;;
77226;SDS011;66234;47.642;19.144;2023-01-20T03:38:25;11.32;;;5.88;;
77226;SDS011;66234;47.642;19.144;2023-01-20T03:48:12;9.63;;;5.43;;
77226;SDS011;66234;47.642;19.144;2023-01-20T03:51:30;10.23;;;5.30;;
77226;SDS011;66234;47.642;19.144;2023-01-20T03:54:42;10.77;;;4.93;;
77226;SDS011;66234;47.642;19.144;2023-01-20T03:57:52;9.75;;;5.25;;
77226;SDS011;66234;47.642;19.144;2023-01-20T04:00:59;9.88;;;4.50;;
77226;SDS011;66234;47.642;19.144;2023-01-20T04:04:20;12.00;;;5.50;;
77226;SDS011;66234;47.642;19.144;2023-01-20T04:07:23;9.60;;;5.18;;
77226;SDS011;66234;47.642;19.144;2023-01-20T04:10:27;8.30;;;4.57;;
77226;SDS011;66234;47.642;19.144;2023-01-20T04:13:33;10.38;;;5.15;;
77226;SDS011;66234;47.642;19.144;2023-01-20T04:16:36;11.90;;;5.32;;
77226;SDS011;66234;47.642;19.144;2023-01-20T04:19:39;8.70;;;5.23;;
77226;SDS011;66234;47.642;19.144;2023-01-20T04:22:48;8.27;;;4.15;;
77226;SDS011;66234;47.642;19.144;2023-01-20T04:25:58;7.65;;;4.65;;
77226;SDS011;66234;47.642;19.144;2023-01-20T04:29:00;10.93;;;5.07;;
77226;SDS011;66234;47.642;19.144;2023-01-20T04:32:12;9.27;;;4.80;;
77226;SDS011;66234;47.642;19.144;2023-01-20T04:35:16;9.87;;;5.73;;
77226;SDS011;66234;47.642;19.144;2023-01-20T04:38:20;10.32;;;5.80;;
77226;SDS011;66234;47.642;19.144;2023-01-20T04:41:23;12.52;;;6.68;;
77226;SDS011;66234;47.642;19.144;2023-01-20T04:44:26;11.82;;;5.85;;
77226;SDS011;66234;47.642;19.144;2023-01-20T04:47:29;11.98;;;6.55;;
77226;SDS011;66234;47.642;19.144;2023-01-20T04:50:32;11.17;;;6.70;;
77226;SDS011;66234;47.642;19.144;2023-01-20T04:53:38;13.02;;;6.80;;
77226;SDS011;66234;47.642;19.144;2023-01-20T04:56:41;13.07;;;6.40;;
77226;SDS011;66234;47.642;19.144;2023-01-20T04:59:45;13.77;;;6.50;;
77226;SDS011;66234;47.642;19.144;2023-01-20T05:02:47;15.10;;;7.35;;
77226;SDS011;66234;47.642;19.144;2023-01-20T05:05:50;11.70;;;6.43;;
77226;SDS011;66234;47.642;19.144;2023-01-20T05:08:56;14.32;;;7.28;;
77226;SDS011;66234;47.642;19.144;2023-01-20T05:11:58;14.82;;;6.75;;
77226;SDS011;66234;47.642;19.144;2023-01-20T05:15:01;13.95;;;7.07;;
77226;SDS011;66234;47.642;19.144;2023-01-20T05:18:04;11.85;;;6.55;;
77226;SDS011;66234;47.642;19.144;2023-01-20T05:21:07;14.17;;;6.67;;
77226;SDS011;66234;47.642;19.144;2023-01-20T05:24:10;12.95;;;6.72;;
77226;SDS011;66234;47.642;19.144;2023-01-20T05:27:13;10.38;;;4.28;;
77226;SDS011;66234;47.642;19.144;2023-01-20T05:30:15;15.55;;;7.00;;
77226;SDS011;66234;47.642;19.144;2023-01-20T05:33:18;10.40;;;5.57;;
77226;SDS011;66234;47.642;19.144;2023-01-20T05:36:20;14.53;;;7.30;;
77226;SDS011;66234;47.642;19.144;2023-01-20T05:39:23;13.00;;;7.05;;
77226;SDS011;66234;47.642;19.144;2023-01-20T05:42:26;12.82;;;6.63;;
77226;SDS011;66234;47.642;19.144;2023-01-20T05:45:30;15.25;;;8.00;;
77226;SDS011;66234;47.642;19.144;2023-01-20T05:48:33;14.20;;;7.22;;
77226;SDS011;66234;47.642;19.144;2023-01-20T05:51:36;16.80;;;7.33;;
77226;SDS011;66234;47.642;19.144;2023-01-20T05:54:39;14.10;;;6.75;;
77226;SDS011;66234;47.642;19.144;2023-01-20T05:57:41;16.67;;;7.45;;
77226;SDS011;66234;47.642;19.144;2023-01-20T06:00:44;16.42;;;7.03;;
77226;SDS011;66234;47.642;19.144;2023-01-20T06:03:46;18.90;;;8.50;;
77226;SDS011;66234;47.642;19.144;2023-01-20T06:06:49;13.03;;;6.87;;
77226;SDS011;66234;47.642;19.144;2023-01-20T06:09:52;14.80;;;7.68;;
77226;SDS011;66234;47.642;19.144;2023-01-20T06:12:54;13.60;;;7.18;;
77226;SDS011;66234;47.642;19.144;2023-01-20T06:15:57;16.98;;;8.95;;
77226;SDS011;66234;47.642;19.144;2023-01-20T06:19:00;15.98;;;8.25;;
77226;SDS011;66234;47.642;19.144;2023-01-20T06:22:03;12.37;;;7.30;;
77226;SDS011;66234;47.642;19.144;2023-01-20T06:25:05;15.15;;;8.13;;
77226;SDS011;66234;47.642;19.144;2023-01-20T06:28:08;17.25;;;8.80;;
77226;SDS011;66234;47.642;19.144;2023-01-20T06:31:12;17.30;;;7.97;;
77226;SDS011;66234;47.642;19.144;2023-01-20T06:34:16;15.93;;;7.70;;
77226;SDS011;66234;47.642;19.144;2023-01-20T06:37:19;16.73;;;7.20;;
77226;SDS011;66234;47.642;19.144;2023-01-20T06:40:21;16.15;;;7.88;;
77226;SDS011;66234;47.642;19.144;2023-01-20T06:43:24;13.82;;;7.35;;
77226;SDS011;66234;47.642;19.144;2023-01-20T06:46:28;12.32;;;5.78;;
77226;SDS011;66234;47.642;19.144;2023-01-20T06:49:31;14.40;;;6.70;;
77226;SDS011;66234;47.642;19.144;2023-01-20T06:52:34;14.53;;;6.50;;
77226;SDS011;66234;47.642;19.144;2023-01-20T06:55:37;14.38;;;6.57;;
77226;SDS011;66234;47.642;19.144;2023-01-20T06:58:40;12.80;;;6.78;;
77226;SDS011;66234;47.642;19.144;2023-01-20T07:01:43;17.23;;;7.45;;
77226;SDS011;66234;47.642;19.144;2023-01-20T07:04:46;16.42;;;7.43;;
77226;SDS011;66234;47.642;19.144;2023-01-20T07:07:49;17.77;;;9.57;;
77226;SDS011;66234;47.642;19.144;2023-01-20T07:10:51;17.00;;;8.50;;
77226;SDS011;66234;47.642;19.144;2023-01-20T07:13:55;16.33;;;8.13;;
77226;SDS011;66234;47.642;19.144;2023-01-20T07:16:58;17.90;;;8.10;;
77226;SDS011;66234;47.642;19.144;2023-01-20T07:20:00;13.55;;;7.95;;
77226;SDS011;66234;47.642;19.144;2023-01-20T07:23:03;18.77;;;8.53;;
77226;SDS011;66234;47.642;19.144;2023-01-20T07:26:08;14.55;;;8.73;;
77226;SDS011;66234;47.642;19.144;2023-01-20T07:29:12;14.20;;;6.45;;
77226;SDS011;66234;47.642;19.144;2023-01-20T07:32:18;16.92;;;7.88;;
77226;SDS011;66234;47.642;19.144;2023-01-20T07:35:23;16.77;;;8.30;;
77226;SDS011;66234;47.642;19.144;2023-01-20T07:38:30;16.53;;;8.03;;
77226;SDS011;66234;47.642;19.144;2023-01-20T07:41:32;16.52;;;7.85;;
77226;SDS011;66234;47.642;19.144;2023-01-20T07:44:36;19.17;;;9.85;;
77226;SDS011;66234;47.642;19.144;2023-01-20T07:47:38;14.20;;;7.50;;
77226;SDS011;66234;47.642;19.144;2023-01-20T07:50:41;17.02;;;8.85;;
77226;SDS011;66234;47.642;19.144;2023-01-20T07:53:44;16.87;;;9.80;;
77226;SDS011;66234;47.642;19.144;2023-01-20T07:56:52;19.02;;;11.43;;
77226;SDS011;66234;47.642;19.144;2023-01-20T07:59:54;17.13;;;9.05;;
77226;SDS011;66234;47.642;19.144;2023-01-20T08:02:57;17.52;;;9.02;;
77226;SDS011;66234;47.642;19.144;2023-01-20T08:06:01;13.40;;;7.10;;
77226;SDS011;66234;47.642;19.144;2023-01-20T08:09:07;15.33;;;6.57;;
77226;SDS011;66234;47.642;19.144;2023-01-20T08:12:13;13.77;;;7.55;;
77226;SDS011;66234;47.642;19.144;2023-01-20T08:15:15;14.55;;;6.78;;
77226;SDS011;66234;47.642;19.144;2023-01-20T08:18:18;14.00;;;6.63;;
77226;SDS011;66234;47.642;19.144;2023-01-20T08:21:28;15.77;;;7.35;;
77226;SDS011;66234;47.642;19.144;2023-01-20T08:24:31;14.73;;;7.63;;
77226;SDS011;66234;47.642;19.144;2023-01-20T08:27:34;18.70;;;8.80;;
77226;SDS011;66234;47.642;19.144;2023-01-20T08:30:37;12.93;;;6.55;;
77226;SDS011;66234;47.642;19.144;2023-01-20T08:33:40;13.85;;;7.25;;
77226;SDS011;66234;47.642;19.144;2023-01-20T08:36:45;14.15;;;6.68;;
77226;SDS011;66234;47.642;19.144;2023-01-20T08:39:49;12.40;;;6.80;;
77226;SDS011;66234;47.642;19.144;2023-01-20T08:42:52;12.98;;;7.13;;
77226;SDS011;66234;47.642;19.144;2023-01-20T08:46:01;14.25;;;7.13;;
77226;SDS011;66234;47.642;19.144;2023-01-20T08:49:08;12.85;;;6.60;;
77226;SDS011;66234;47.642;19.144;2023-01-20T08:52:13;12.85;;;6.50;;
77226;SDS011;66234;47.642;19.144;2023-01-20T08:55:15;11.47;;;6.40;;
77226;SDS011;66234;47.642;19.144;2023-01-20T08:58:18;11.75;;;6.05;;
77226;SDS011;66234;47.642;19.144;2023-01-20T09:01:25;9.02;;;5.13;;
77226;SDS011;66234;47.642;19.144;2023-01-20T09:04:29;11.07;;;6.07;;
77226;SDS011;66234;47.642;19.144;2023-01-20T09:07:32;10.02;;;5.25;;
77226;SDS011;66234;47.642;19.144;2023-01-20T09:10:35;10.03;;;5.43;;
77226;SDS011;66234;47.642;19.144;2023-01-20T09:13:37;12.27;;;6.50;;
77226;SDS011;66234;47.642;19.144;2023-01-20T09:16:41;11.90;;;5.55;;
77226;SDS011;66234;47.642;19.144;2023-01-20T09:19:44;10.65;;;6.10;;
77226;SDS011;66234;47.642;19.144;2023-01-20T09:22:46;10.38;;;5.88;;
77226;SDS011;66234;47.642;19.144;2023-01-20T09:25:49;13.43;;;6.27;;
77226;SDS011;66234;47.642;19.144;2023-01-20T09:28:52;11.35;;;6.40;;
77226;SDS011;66234;47.642;19.144;2023-01-20T09:31:55;12.00;;;5.95;;
77226;SDS011;66234;47.642;19.144;2023-01-20T09:34:59;9.15;;;5.40;;
77226;SDS011;66234;47.642;19.144;2023-01-20T09:38:02;11.63;;;6.50;;
77226;SDS011;66234;47.642;19.144;2023-01-20T09:45:06;9.85;;;6.57;;
77226;SDS011;66234;47.642;19.144;2023-01-20T09:48:12;16.63;;;7.50;;
77226;SDS011;66234;47.642;19.144;2023-01-20T09:55:24;20.30;;;8.15;;
77226;SDS011;66234;47.642;19.144;2023-01-20T09:58:35;12.73;;;7.30;;
77226;SDS011;66234;47.642;19.144;2023-01-20T10:01:45;9.23;;;5.40;;
77226;SDS011;66234;47.642;19.144;2023-01-20T10:04:53;12.00;;;6.78;;
77226;SDS011;66234;47.642;19.144;2023-01-20T10:08:06;9.65;;;5.30;;
77226;SDS011;66234;47.642;19.144;2023-01-20T10:11:21;10.38;;;5.68;;
77226;SDS011;66234;47.642;19.144;2023-01-20T10:14:29;8.97;;;4.90;;
77226;SDS011;66234;47.642;19.144;2023-01-20T10:17:47;11.40;;;6.35;;
77226;SDS011;66234;47.642;19.144;2023-01-20T10:24:23;9.35;;;4.68;;
77226;SDS011;66234;47.642;19.144;2023-01-20T10:27:32;8.82;;;5.20;;
77226;SDS011;66234;47.642;19.144;2023-01-20T10:30:38;8.10;;;4.83;;
77226;SDS011;66234;47.642;19.144;2023-01-20T10:33:43;10.73;;;4.25;;
77226;SDS011;66234;47.642;19.144;2023-01-20T10:36:54;12.32;;;5.80;;
77226;SDS011;66234;47.642;19.144;2023-01-20T10:40:12;15.95;;;7.32;;
77226;SDS011;66234;47.642;19.144;2023-01-20T10:43:16;11.73;;;6.72;;
77226;SDS011;66234;47.642;19.144;2023-01-20T10:56:35;16.88;;;8.80;;
77226;SDS011;66234;47.642;19.144;2023-01-20T10:59:48;14.48;;;7.55;;
77226;SDS011;66234;47.642;19.144;2023-01-20T11:02:54;13.70;;;8.33;;
77226;SDS011;66234;47.642;19.144;2023-01-20T11:06:00;13.73;;;7.35;;
77226;SDS011;66234;47.642;19.144;2023-01-20T11:09:10;15.63;;;8.40;;
77226;SDS011;66234;47.642;19.144;2023-01-20T11:12:23;14.52;;;7.97;;
77226;SDS011;66234;47.642;19.144;2023-01-20T11:18:36;11.33;;;6.83;;
77226;SDS011;66234;47.642;19.144;2023-01-20T11:21:40;12.23;;;7.07;;
77226;SDS011;66234;47.642;19.144;2023-01-20T11:24:43;14.25;;;8.02;;
77226;SDS011;66234;47.642;19.144;2023-01-20T11:27:46;13.82;;;7.57;;
77226;SDS011;66234;47.642;19.144;2023-01-20T11:30:52;14.50;;;7.82;;
77226;SDS011;66234;47.642;19.144;2023-01-20T11:33:58;11.57;;;7.17;;
77226;SDS011;66234;47.642;19.144;2023-01-20T11:40:20;13.85;;;7.13;;
77226;SDS011;66234;47.642;19.144;2023-01-20T11:43:28;14.48;;;7.28;;
77226;SDS011;66234;47.642;19.144;2023-01-20T11:46:33;12.20;;;7.20;;
77226;SDS011;66234;47.642;19.144;2023-01-20T11:49:37;11.93;;;6.43;;
77226;SDS011;66234;47.642;19.144;2023-01-20T11:52:41;12.57;;;6.50;;
77226;SDS011;66234;47.642;19.144;2023-01-20T11:55:50;9.68;;;5.75;;
77226;SDS011;66234;47.642;19.144;2023-01-20T11:58:59;9.90;;;5.57;;
77226;SDS011;66234;47.642;19.144;2023-01-20T12:05:17;10.43;;;5.50;;
77226;SDS011;66234;47.642;19.144;2023-01-20T12:08:31;10.57;;;5.75;;
77226;SDS011;66234;47.642;19.144;2023-01-20T12:15:03;11.98;;;3.55;;
77226;SDS011;66234;47.642;19.144;2023-01-20T12:18:32;9.23;;;5.30;;
77226;SDS011;66234;47.642;19.144;2023-01-20T12:21:40;6.13;;;2.90;;
77226;SDS011;66234;47.642;19.144;2023-01-20T12:24:50;6.15;;;3.60;;
77226;SDS011;66234;47.642;19.144;2023-01-20T12:28:19;6.78;;;4.03;;
77226;SDS011;66234;47.642;19.144;2023-01-20T12:31:30;10.20;;;4.10;;
77226;SDS011;66234;47.642;19.144;2023-01-20T12:34:33;8.43;;;4.80;;
77226;SDS011;66234;47.642;19.144;2023-01-20T12:37:38;4.97;;;2.50;;
77226;SDS011;66234;47.642;19.144;2023-01-20T12:40:51;10.30;;;5.40;;
77226;SDS011;66234;47.642;19.144;2023-01-20T12:47:50;8.43;;;4.78;;
77226;SDS011;66234;47.642;19.144;2023-01-20T12:57:56;9.82;;;4.65;;
77226;SDS011;66234;47.642;19.144;2023-01-20T13:22:23;11.25;;;6.43;;
77226;SDS011;66234;47.642;19.144;2023-01-20T13:25:27;11.63;;;6.10;;
77226;SDS011;66234;47.642;19.144;2023-01-20T13:28:31;12.60;;;7.47;;
77226;SDS011;66234;47.642;19.144;2023-01-20T13:31:44;12.48;;;8.25;;
77226;SDS011;66234;47.642;19.144;2023-01-20T13:34:48;13.93;;;7.82;;
77226;SDS011;66234;47.642;19.144;2023-01-20T13:37:52;14.07;;;7.15;;
77226;SDS011;66234;47.642;19.144;2023-01-20T13:40:58;9.85;;;6.28;;
77226;SDS011;66234;47.642;19.144;2023-01-20T13:44:23;11.17;;;6.47;;
77226;SDS011;66234;47.642;19.144;2023-01-20T13:57:35;13.18;;;6.40;;
77226;SDS011;66234;47.642;19.144;2023-01-20T14:00:38;10.43;;;4.87;;
77226;SDS011;66234;47.642;19.144;2023-01-20T14:03:41;11.90;;;6.18;;
77226;SDS011;66234;47.642;19.144;2023-01-20T14:06:44;11.40;;;6.80;;
77226;SDS011;66234;47.642;19.144;2023-01-20T14:09:52;11.93;;;7.00;;
77226;SDS011;66234;47.642;19.144;2023-01-20T14:12:56;11.20;;;6.28;;
77226;SDS011;66234;47.642;19.144;2023-01-20T14:15:58;11.33;;;5.83;;
77226;SDS011;66234;47.642;19.144;2023-01-20T14:19:14;10.18;;;5.65;;
77226;SDS011;66234;47.642;19.144;2023-01-20T14:25:26;13.63;;;8.38;;
77226;SDS011;66234;47.642;19.144;2023-01-20T14:28:28;16.45;;;7.20;;
77226;SDS011;66234;47.642;19.144;2023-01-20T14:31:33;13.67;;;7.77;;
77226;SDS011;66234;47.642;19.144;2023-01-20T14:34:41;15.18;;;7.78;;
77226;SDS011;66234;47.642;19.144;2023-01-20T14:37:48;17.98;;;8.48;;
77226;SDS011;66234;47.642;19.144;2023-01-20T14:40:52;13.82;;;7.10;;
77226;SDS011;66234;47.642;19.144;2023-01-20T14:43:55;15.32;;;7.68;;
77226;SDS011;66234;47.642;19.144;2023-01-20T14:46:59;12.30;;;7.27;;
77226;SDS011;66234;47.642;19.144;2023-01-20T14:50:04;9.65;;;6.07;;
77226;SDS011;66234;47.642;19.144;2023-01-20T14:53:13;13.52;;;6.50;;
77226;SDS011;66234;47.642;19.144;2023-01-20T14:56:17;13.48;;;7.30;;
77226;SDS011;66234;47.642;19.144;2023-01-20T14:59:22;10.25;;;6.60;;
77226;SDS011;66234;47.642;19.144;2023-01-20T15:02:26;13.60;;;7.37;;
77226;SDS011;66234;47.642;19.144;2023-01-20T15:05:33;11.07;;;5.22;;
77226;SDS011;66234;47.642;19.144;2023-01-20T15:11:42;15.00;;;7.55;;
77226;SDS011;66234;47.642;19.144;2023-01-20T15:21:21;14.45;;;8.00;;
77226;SDS011;66234;47.642;19.144;2023-01-20T15:24:29;13.50;;;6.45;;
77226;SDS011;66234;47.642;19.144;2023-01-20T15:27:32;11.75;;;7.07;;
77226;SDS011;66234;47.642;19.144;2023-01-20T15:30:35;13.13;;;6.15;;
77226;SDS011;66234;47.642;19.144;2023-01-20T15:33:38;12.07;;;6.20;;
77226;SDS011;66234;47.642;19.144;2023-01-20T15:36:41;12.73;;;6.07;;
77226;SDS011;66234;47.642;19.144;2023-01-20T15:39:45;13.32;;;7.07;;
77226;SDS011;66234;47.642;19.144;2023-01-20T15:42:48;11.85;;;5.45;;
77226;SDS011;66234;47.642;19.144;2023-01-20T15:45:52;12.23;;;6.60;;
77226;SDS011;66234;47.642;19.144;2023-01-20T15:48:54;13.27;;;7.47;;
77226;SDS011;66234;47.642;19.144;2023-01-20T15:51:57;13.18;;;7.40;;
77226;SDS011;66234;47.642;19.144;2023-01-20T15:54:59;14.43;;;8.23;;
77226;SDS011;66234;47.642;19.144;2023-01-20T15:58:05;12.95;;;7.47;;
77226;SDS011;66234;47.642;19.144;2023-01-20T16:01:23;15.10;;;7.85;;
77226;SDS011;66234;47.642;19.144;2023-01-20T16:04:27;20.37;;;8.37;;
77226;SDS011;66234;47.642;19.144;2023-01-20T16:07:32;14.98;;;8.40;;
77226;SDS011;66234;47.642;19.144;2023-01-20T16:10:37;28.73;;;14.13;;
77226;SDS011;66234;47.642;19.144;2023-01-20T16:13:41;17.73;;;10.30;;
77226;SDS011;66234;47.642;19.144;2023-01-20T16:16:44;19.90;;;11.85;;
77226;SDS011;66234;47.642;19.144;2023-01-20T16:19:47;23.33;;;12.80;;
77226;SDS011;66234;47.642;19.144;2023-01-20T16:22:50;20.58;;;10.07;;
77226;SDS011;66234;47.642;19.144;2023-01-20T16:25:54;20.83;;;13.70;;
77226;SDS011;66234;47.642;19.144;2023-01-20T16:28:56;13.85;;;7.47;;
77226;SDS011;66234;47.642;19.144;2023-01-20T16:31:59;14.40;;;8.35;;
77226;SDS011;66234;47.642;19.144;2023-01-20T16:35:02;16.07;;;9.13;;
77226;SDS011;66234;47.642;19.144;2023-01-20T16:38:05;16.67;;;8.68;;
77226;SDS011;66234;47.642;19.144;2023-01-20T16:41:12;11.68;;;6.38;;
77226;SDS011;66234;47.642;19.144;2023-01-20T16:44:21;14.07;;;7.60;;
77226;SDS011;66234;47.642;19.144;2023-01-20T16:47:23;17.25;;;8.27;;
77226;SDS011;66234;47.642;19.144;2023-01-20T16:50:26;19.40;;;9.17;;
77226;SDS011;66234;47.642;19.144;2023-01-20T16:53:29;17.05;;;8.98;;
77226;SDS011;66234;47.642;19.144;2023-01-20T16:56:32;16.42;;;7.53;;
77226;SDS011;66234;47.642;19.144;2023-01-20T16:59:35;12.63;;;7.60;;
77226;SDS011;66234;47.642;19.144;2023-01-20T17:02:38;13.30;;;8.07;;
77226;SDS011;66234;47.642;19.144;2023-01-20T17:05:40;14.80;;;7.30;;
77226;SDS011;66234;47.642;19.144;2023-01-20T17:08:43;11.98;;;7.38;;
77226;SDS011;66234;47.642;19.144;2023-01-20T17:11:47;13.32;;;7.43;;
77226;SDS011;66234;47.642;19.144;2023-01-20T17:14:49;11.20;;;6.90;;
77226;SDS011;66234;47.642;19.144;2023-01-20T17:17:53;9.77;;;6.63;;
77226;SDS011;66234;47.642;19.144;2023-01-20T17:21:02;10.57;;;5.37;;
77226;SDS011;66234;47.642;19.144;2023-01-20T17:24:06;11.43;;;5.97;;
77226;SDS011;66234;47.642;19.144;2023-01-20T17:27:09;11.00;;;5.93;;
77226;SDS011;66234;47.642;19.144;2023-01-20T17:30:12;10.95;;;6.30;;
77226;SDS011;66234;47.642;19.144;2023-01-20T17:33:16;11.57;;;6.30;;
77226;SDS011;66234;47.642;19.144;2023-01-20T17:36:18;12.83;;;7.00;;
77226;SDS011;66234;47.642;19.144;2023-01-20T17:39:21;11.68;;;7.10;;
77226;SDS011;66234;47.642;19.144;2023-01-20T17:42:23;11.50;;;6.47;;
77226;SDS011;66234;47.642;19.144;2023-01-20T17:45:26;11.98;;;6.18;;
77226;SDS011;66234;47.642;19.144;2023-01-20T17:48:32;11.57;;;6.63;;
77226;SDS011;66234;47.642;19.144;2023-01-20T17:51:35;9.60;;;5.23;;
77226;SDS011;66234;47.642;19.144;2023-01-20T17:54:38;10.68;;;5.13;;
77226;SDS011;66234;47.642;19.144;2023-01-20T17:57:41;7.63;;;5.20;;
77226;SDS011;66234;47.642;19.144;2023-01-20T18:00:43;10.85;;;5.95;;
77226;SDS011;66234;47.642;19.144;2023-01-20T18:03:47;6.38;;;4.55;;
77226;SDS011;66234;47.642;19.144;2023-01-20T18:06:52;5.23;;;2.93;;
77226;SDS011;66234;47.642;19.144;2023-01-20T18:09:54;6.03;;;3.53;;
77226;SDS011;66234;47.642;19.144;2023-01-20T18:12:57;6.10;;;3.83;;
77226;SDS011;66234;47.642;19.144;2023-01-20T18:19:10;3.45;;;2.28;;
77226;SDS011;66234;47.642;19.144;2023-01-20T18:22:15;6.07;;;3.00;;
77226;SDS011;66234;47.642;19.144;2023-01-20T18:25:18;4.85;;;2.88;;
77226;SDS011;66234;47.642;19.144;2023-01-20T18:28:21;4.45;;;2.97;;
77226;SDS011;66234;47.642;19.144;2023-01-20T18:31:24;5.28;;;3.15;;
77226;SDS011;66234;47.642;19.144;2023-01-20T18:34:28;6.97;;;2.88;;
77226;SDS011;66234;47.642;19.144;2023-01-20T18:37:31;6.23;;;3.03;;
77226;SDS011;66234;47.642;19.144;2023-01-20T18:40:35;4.47;;;2.88;;
77226;SDS011;66234;47.642;19.144;2023-01-20T18:43:38;6.57;;;3.67;;
77226;SDS011;66234;47.642;19.144;2023-01-20T18:46:41;5.88;;;3.47;;
77226;SDS011;66234;47.642;19.144;2023-01-20T18:49:44;10.80;;;6.63;;
77226;SDS011;66234;47.642;19.144;2023-01-20T18:52:46;11.93;;;6.27;;
77226;SDS011;66234;47.642;19.144;2023-01-20T18:55:49;8.02;;;3.63;;
77226;SDS011;66234;47.642;19.144;2023-01-20T18:58:52;4.28;;;3.17;;
77226;SDS011;66234;47.642;19.144;2023-01-20T19:01:55;6.85;;;4.20;;
77226;SDS011;66234;47.642;19.144;2023-01-20T19:05:00;7.45;;;3.97;;
77226;SDS011;66234;47.642;19.144;2023-01-20T19:08:03;9.53;;;4.37;;
77226;SDS011;66234;47.642;19.144;2023-01-20T19:11:07;8.82;;;5.20;;
77226;SDS011;66234;47.642;19.144;2023-01-20T19:14:14;8.70;;;4.57;;
77226;SDS011;66234;47.642;19.144;2023-01-20T19:17:17;9.18;;;5.97;;
77226;SDS011;66234;47.642;19.144;2023-01-20T19:20:20;17.13;;;10.32;;
77226;SDS011;66234;47.642;19.144;2023-01-20T19:23:24;14.87;;;7.33;;
77226;SDS011;66234;47.642;19.144;2023-01-20T19:26:27;12.95;;;7.32;;
77226;SDS011;66234;47.642;19.144;2023-01-20T19:29:29;10.80;;;7.00;;
77226;SDS011;66234;47.642;19.144;2023-01-20T19:32:32;13.68;;;6.75;;
77226;SDS011;66234;47.642;19.144;2023-01-20T19:35:35;9.80;;;5.82;;
77226;SDS011;66234;47.642;19.144;2023-01-20T19:38:38;7.00;;;4.37;;
77226;SDS011;66234;47.642;19.144;2023-01-20T19:41:41;7.60;;;4.53;;
77226;SDS011;66234;47.642;19.144;2023-01-20T19:44:45;6.97;;;4.10;;
77226;SDS011;66234;47.642;19.144;2023-01-20T19:47:47;10.10;;;4.00;;
77226;SDS011;66234;47.642;19.144;2023-01-20T19:50:50;5.13;;;2.90;;
77226;SDS011;66234;47.642;19.144;2023-01-20T19:53:54;8.20;;;4.63;;
77226;SDS011;66234;47.642;19.144;2023-01-20T19:57:00;8.32;;;4.80;;
77226;SDS011;66234;47.642;19.144;2023-01-20T20:00:03;9.32;;;5.20;;
77226;SDS011;66234;47.642;19.144;2023-01-20T20:03:13;10.00;;;3.92;;
77226;SDS011;66234;47.642;19.144;2023-01-20T20:06:26;7.80;;;4.70;;
77226;SDS011;66234;47.642;19.144;2023-01-20T20:09:39;10.23;;;5.87;;
77226;SDS011;66234;47.642;19.144;2023-01-20T20:12:43;11.48;;;5.70;;
77226;SDS011;66234;47.642;19.144;2023-01-20T20:15:46;12.10;;;6.80;;
77226;SDS011;66234;47.642;19.144;2023-01-20T20:18:50;10.32;;;6.40;;